createdAt,value
2023-07-30T00:00:52.798Z,99.90
2023-07-30T00:02:54.791Z,99.90
2023-07-30T00:04:57.122Z,99.90
2023-07-30T00:06:58.909Z,99.90
2023-07-30T00:09:00.686Z,99.90
2023-07-30T00:11:02.822Z,99.90
2023-07-30T00:13:04.618Z,99.90
2023-07-30T00:15:06.729Z,99.90
2023-07-30T00:17:08.553Z,99.90
2023-07-30T00:19:11.684Z,99.90
2023-07-30T00:21:13.477Z,99.90
2023-07-30T00:23:15.276Z,99.90
2023-07-30T00:25:17.067Z,99.90
2023-07-30T00:27:20.973Z,99.90
2023-07-30T00:29:24.366Z,99.90
2023-07-30T00:31:26.181Z,99.90
2023-07-30T00:33:28.035Z,99.90
2023-07-30T00:35:29.919Z,99.90
2023-07-30T00:37:31.704Z,99.90
2023-07-30T00:39:33.522Z,99.90
2023-07-30T00:41:35.434Z,99.90
2023-07-30T00:43:37.420Z,99.90
2023-07-30T00:45:41.231Z,99.90
2023-07-30T00:47:43.338Z,99.90
2023-07-30T00:49:45.160Z,99.90
2023-07-30T00:51:47.015Z,99.90
2023-07-30T00:53:49.321Z,99.90
2023-07-30T00:55:51.179Z,99.90
2023-07-30T00:57:53.235Z,99.90
2023-07-30T00:59:55.471Z,99.90
2023-07-30T01:01:58.623Z,99.90
2023-07-30T01:04:00.458Z,99.90
2023-07-30T01:06:02.439Z,99.90
2023-07-30T01:08:04.323Z,99.90
2023-07-30T01:10:06.426Z,99.90
2023-07-30T01:12:08.939Z,99.90
2023-07-30T01:14:11.104Z,99.90
2023-07-30T01:16:12.900Z,99.90
2023-07-30T01:18:14.892Z,99.90
2023-07-30T01:20:16.716Z,99.90
2023-07-30T01:22:18.498Z,99.90
2023-07-30T01:24:20.330Z,99.90
2023-07-30T01:26:25.874Z,99.90
2023-07-30T01:28:28.426Z,99.90
2023-07-30T01:30:49.683Z,99.90
2023-07-30T01:32:53.332Z,99.90
2023-07-30T01:34:55.812Z,99.90
2023-07-30T01:36:59.139Z,99.90
2023-07-30T01:39:01.251Z,99.90
2023-07-30T01:41:03.045Z,99.90
2023-07-30T01:43:04.886Z,99.90
2023-07-30T01:45:07.146Z,99.90
2023-07-30T01:47:08.939Z,99.90
2023-07-30T01:49:10.808Z,99.90
2023-07-30T01:51:12.590Z,99.90
2023-07-30T01:53:14.630Z,99.90
2023-07-30T01:55:16.471Z,99.90
2023-07-30T01:57:18.326Z,99.90
2023-07-30T01:59:20.126Z,99.90
2023-07-30T02:01:22.018Z,99.90
2023-07-30T02:03:23.983Z,99.90
2023-07-30T02:05:25.820Z,99.90
2023-07-30T02:07:27.648Z,99.90
2023-07-30T02:09:29.433Z,99.90
2023-07-30T02:11:31.213Z,99.90
2023-07-30T02:13:33.045Z,99.90
2023-07-30T02:15:34.894Z,99.90
2023-07-30T02:17:36.727Z,99.90
2023-07-30T02:19:38.578Z,99.90
2023-07-30T02:21:43.808Z,99.90
2023-07-30T02:23:45.606Z,99.90
2023-07-30T02:25:47.493Z,99.90
2023-07-30T02:27:49.272Z,99.90
2023-07-30T02:29:51.064Z,99.90
2023-07-30T02:31:52.953Z,99.90
2023-07-30T02:33:54.807Z,99.90
2023-07-30T02:35:56.579Z,99.90
2023-07-30T02:37:58.441Z,99.90
2023-07-30T02:40:00.770Z,99.90
2023-07-30T02:42:02.552Z,99.90
2023-07-30T02:44:04.441Z,99.90
2023-07-30T02:46:08.158Z,99.90
2023-07-30T02:48:10.053Z,99.90
2023-07-30T02:50:12.148Z,99.90
2023-07-30T02:52:13.955Z,99.90
2023-07-30T02:54:17.353Z,99.90
2023-07-30T02:56:19.162Z,99.90
2023-07-30T02:58:20.934Z,99.90
2023-07-30T03:00:22.720Z,99.90
2023-07-30T03:02:24.686Z,99.90
2023-07-30T03:04:26.719Z,99.90
2023-07-30T03:06:28.504Z,99.90
2023-07-30T03:08:30.333Z,99.90
2023-07-30T03:10:33.336Z,99.90
2023-07-30T03:12:35.110Z,99.90
2023-07-30T03:14:37.183Z,99.90
2023-07-30T03:16:39.004Z,99.90
2023-07-30T03:18:40.847Z,99.90
2023-07-30T03:20:42.696Z,99.90
2023-07-30T03:22:44.487Z,99.90
2023-07-30T03:24:50.149Z,99.90
2023-07-30T03:26:51.969Z,99.90
2023-07-30T03:28:53.788Z,99.90
2023-07-30T03:30:55.634Z,99.90
2023-07-30T03:32:57.551Z,99.90
2023-07-30T03:34:59.353Z,99.90
2023-07-30T03:37:01.809Z,99.90
2023-07-30T03:39:03.860Z,99.90
2023-07-30T03:41:06.007Z,99.90
2023-07-30T03:43:07.789Z,99.90
2023-07-30T03:45:09.787Z,99.90
2023-07-30T03:47:11.564Z,99.90
2023-07-30T03:49:13.376Z,99.90
2023-07-30T03:51:15.261Z,99.90
2023-07-30T03:53:17.054Z,99.90
2023-07-30T03:55:18.911Z,99.90
2023-07-30T03:57:20.716Z,99.90
2023-07-30T03:59:22.515Z,99.90
2023-07-30T04:01:24.339Z,99.90
2023-07-30T04:03:26.197Z,99.90
2023-07-30T04:05:28.081Z,99.90
2023-07-30T04:07:29.852Z,99.90
2023-07-30T04:09:31.662Z,99.90
2023-07-30T04:11:33.466Z,99.90
2023-07-30T04:13:35.532Z,99.90
2023-07-30T04:15:37.349Z,99.90
2023-07-30T04:17:39.298Z,99.90
2023-07-30T04:19:41.095Z,99.90
2023-07-30T04:21:43.002Z,99.90
2023-07-30T04:23:44.830Z,99.90
2023-07-30T04:25:46.631Z,99.90
2023-07-30T04:27:48.452Z,99.90
2023-07-30T04:29:50.275Z,99.90
2023-07-30T04:31:52.074Z,99.90
2023-07-30T04:33:53.892Z,99.90
2023-07-30T04:35:55.645Z,99.90
2023-07-30T04:37:57.532Z,99.90
2023-07-30T04:39:59.455Z,99.90
2023-07-30T04:42:01.239Z,99.90
2023-07-30T04:44:03.057Z,99.90
2023-07-30T04:46:06.192Z,99.90
2023-07-30T04:48:10.555Z,99.90
2023-07-30T04:50:12.385Z,99.90
2023-07-30T04:52:14.259Z,99.90
2023-07-30T04:54:16.188Z,99.90
2023-07-30T04:56:17.984Z,99.90
2023-07-30T04:58:19.792Z,99.90
2023-07-30T05:00:21.592Z,99.90
2023-07-30T05:02:23.433Z,99.90
2023-07-30T05:04:25.282Z,99.90
2023-07-30T05:06:27.077Z,99.90
2023-07-30T05:08:28.854Z,99.90
2023-07-30T05:10:30.684Z,99.90
2023-07-30T05:12:32.489Z,99.90
2023-07-30T05:14:34.302Z,99.90
2023-07-30T05:16:37.562Z,99.90
2023-07-30T05:18:39.400Z,99.90
2023-07-30T05:20:41.189Z,99.90
2023-07-30T05:22:43.059Z,99.90
2023-07-30T05:24:44.835Z,99.90
2023-07-30T05:26:46.604Z,99.90
2023-07-30T05:28:48.471Z,99.90
2023-07-30T05:30:50.263Z,99.90
2023-07-30T05:32:52.218Z,99.90
2023-07-30T05:34:54.179Z,99.90
2023-07-30T05:36:56.009Z,99.90
2023-07-30T05:39:00.418Z,99.90
2023-07-30T05:41:02.297Z,99.90
2023-07-30T05:43:05.299Z,99.90
2023-07-30T05:45:07.534Z,99.90
2023-07-30T05:47:09.380Z,99.90
2023-07-30T05:49:11.975Z,99.90
2023-07-30T05:51:13.771Z,99.90
2023-07-30T05:53:15.740Z,99.90
2023-07-30T05:55:17.712Z,99.90
2023-07-30T05:57:19.489Z,99.90
2023-07-30T05:59:23.591Z,99.90
2023-07-30T06:01:25.752Z,99.90
2023-07-30T06:03:27.644Z,99.90
2023-07-30T06:05:29.546Z,99.90
2023-07-30T06:07:31.377Z,99.90
2023-07-30T06:09:33.200Z,99.90
2023-07-30T06:11:35.086Z,99.90
2023-07-30T06:13:38.145Z,99.90
2023-07-30T06:15:40.115Z,99.90
2023-07-30T06:17:42.034Z,99.90
2023-07-30T06:19:43.838Z,99.90
2023-07-30T06:21:45.652Z,99.90
2023-07-30T06:23:47.471Z,99.90
2023-07-30T06:25:49.268Z,99.90
2023-07-30T06:27:51.139Z,99.90
2023-07-30T06:29:53.026Z,99.90
2023-07-30T06:31:54.852Z,99.90
2023-07-30T06:33:56.624Z,99.90
2023-07-30T06:35:58.477Z,99.90
2023-07-30T06:38:00.286Z,99.90
2023-07-30T06:40:05.062Z,99.90
2023-07-30T06:42:06.992Z,99.90
2023-07-30T06:44:09.727Z,99.90
2023-07-30T06:46:11.486Z,99.90
2023-07-30T06:48:13.348Z,99.90
2023-07-30T06:50:15.204Z,99.90
2023-07-30T06:52:17.014Z,99.90
2023-07-30T06:54:18.859Z,99.90
2023-07-30T06:56:20.643Z,99.90
2023-07-30T06:58:22.460Z,99.90
2023-07-30T07:00:24.316Z,99.90
2023-07-30T07:02:26.307Z,99.90
2023-07-30T07:04:28.177Z,99.90
2023-07-30T07:06:29.997Z,99.90
2023-07-30T07:08:31.859Z,99.90
2023-07-30T07:10:33.685Z,99.90
2023-07-30T07:12:35.512Z,99.90
2023-07-30T07:14:37.333Z,99.90
2023-07-30T07:16:39.193Z,99.90
2023-07-30T07:18:41.031Z,99.90
2023-07-30T07:20:42.830Z,99.90
2023-07-30T07:22:44.617Z,99.90
2023-07-30T07:24:46.452Z,99.90
2023-07-30T07:26:48.293Z,99.90
2023-07-30T07:28:50.101Z,99.90
2023-07-30T07:30:52.731Z,99.90
2023-07-30T07:32:54.909Z,99.90
2023-07-30T07:34:56.819Z,99.90
2023-07-30T07:36:58.669Z,99.90
2023-07-30T07:39:00.466Z,99.90
2023-07-30T07:41:02.777Z,99.90
2023-07-30T07:43:04.629Z,99.90
2023-07-30T07:45:07.363Z,99.90
2023-07-30T07:47:09.180Z,99.90
2023-07-30T07:49:11.022Z,99.90
2023-07-30T07:51:12.952Z,99.90
2023-07-30T07:53:14.763Z,99.90
2023-07-30T07:55:17.725Z,99.90
2023-07-30T07:57:19.576Z,99.90
2023-07-30T07:59:21.384Z,99.90
2023-07-30T08:01:23.267Z,99.90
2023-07-30T08:03:25.202Z,99.90
2023-07-30T08:05:27.860Z,99.90
2023-07-30T08:07:29.779Z,99.90
2023-07-30T08:09:31.840Z,99.90
2023-07-30T08:11:37.206Z,99.90
2023-07-30T08:13:40.368Z,99.90
2023-07-30T08:15:42.173Z,99.90
2023-07-30T08:17:43.985Z,99.90
2023-07-30T08:19:45.799Z,99.90
2023-07-30T08:21:47.596Z,99.90
2023-07-30T08:23:49.457Z,99.90
2023-07-30T08:25:51.362Z,99.90
2023-07-30T08:27:53.746Z,99.90
2023-07-30T08:29:55.615Z,99.90
2023-07-30T08:31:57.481Z,99.90
2023-07-30T08:33:59.508Z,99.90
2023-07-30T08:36:01.508Z,99.90
2023-07-30T08:38:03.351Z,99.90
2023-07-30T08:40:05.432Z,99.90
2023-07-30T08:42:07.249Z,99.90
2023-07-30T08:44:10.514Z,99.90
2023-07-30T08:46:12.569Z,99.90
2023-07-30T08:48:14.856Z,99.90
2023-07-30T08:50:16.955Z,99.90
2023-07-30T08:52:21.355Z,99.90
2023-07-30T08:54:23.616Z,99.90
2023-07-30T08:56:25.489Z,99.90
2023-07-30T08:58:28.719Z,99.90
2023-07-30T09:00:34.291Z,99.90
2023-07-30T09:02:36.741Z,99.90
2023-07-30T09:04:38.798Z,99.90
2023-07-30T09:06:41.025Z,99.90
2023-07-30T09:08:42.854Z,99.90
2023-07-30T09:10:44.686Z,99.90
2023-07-30T09:12:48.986Z,99.90
2023-07-30T09:14:52.023Z,99.90
2023-07-30T09:16:59.824Z,99.90
2023-07-30T09:19:01.661Z,99.90
2023-07-30T09:21:03.542Z,99.90
2023-07-30T09:23:06.185Z,99.90
2023-07-30T09:25:08.491Z,99.90
2023-07-30T09:27:10.347Z,99.90
2023-07-30T09:29:12.306Z,99.90
2023-07-30T09:31:36.878Z,99.90
2023-07-30T09:33:36.379Z,99.90
2023-07-30T09:35:40.506Z,99.90
2023-07-30T09:37:42.507Z,99.90
2023-07-30T09:39:44.501Z,99.90
2023-07-30T09:41:46.900Z,99.90
2023-07-30T09:43:48.697Z,99.90
2023-07-30T09:45:50.625Z,99.90
2023-07-30T09:47:54.084Z,99.90
2023-07-30T09:49:55.960Z,99.90
2023-07-30T09:51:57.781Z,99.90
2023-07-30T09:53:59.577Z,99.90
2023-07-30T09:56:02.597Z,99.90
2023-07-30T09:58:04.469Z,99.90
2023-07-30T10:00:07.265Z,99.90
2023-07-30T10:02:09.888Z,99.90
2023-07-30T10:04:12.194Z,99.90
2023-07-30T10:06:14.393Z,99.90
2023-07-30T10:08:22.692Z,99.90
2023-07-30T10:10:25.798Z,99.90
2023-07-30T10:12:31.924Z,99.90
2023-07-30T10:14:33.898Z,99.90
2023-07-30T10:16:35.840Z,99.90
2023-07-30T10:18:41.281Z,99.90
2023-07-30T10:20:52.841Z,99.90
2023-07-30T10:22:55.823Z,99.90
2023-07-30T10:25:02.005Z,99.90
2023-07-30T10:27:06.848Z,99.90
2023-07-30T10:29:19.054Z,99.90
2023-07-30T10:31:20.844Z,99.90
2023-07-30T10:33:22.621Z,99.90
2023-07-30T10:35:50.835Z,99.90
2023-07-30T10:37:52.733Z,99.60
2023-07-30T10:39:54.738Z,99.80
2023-07-30T10:41:57.611Z,99.90
2023-07-30T10:44:00.605Z,99.90
2023-07-30T10:46:02.546Z,99.90
2023-07-30T10:48:07.433Z,99.70
2023-07-30T10:50:11.831Z,98.20
2023-07-30T10:52:13.804Z,97.80
2023-07-30T10:54:17.524Z,97.40
2023-07-30T10:56:25.698Z,97.70
2023-07-30T10:58:28.121Z,97.40
2023-07-30T11:00:29.903Z,97.70
2023-07-30T11:02:31.990Z,98.10
2023-07-30T11:04:36.821Z,98.30
2023-07-30T11:06:39.463Z,98.40
2023-07-30T11:08:42.672Z,98.20
2023-07-30T11:10:50.943Z,98.00
2023-07-30T11:12:52.884Z,98.40
2023-07-30T11:15:01.060Z,97.10
2023-07-30T11:17:03.771Z,98.00
2023-07-30T11:19:08.961Z,97.50
2023-07-30T11:21:11.733Z,98.20
2023-07-30T11:23:23.738Z,97.60
2023-07-30T11:25:25.535Z,97.60
2023-07-30T11:27:27.341Z,96.10
2023-07-30T11:29:29.301Z,97.10
2023-07-30T11:31:31.183Z,96.70
2023-07-30T11:33:33.580Z,96.20
2023-07-30T11:35:35.657Z,96.80
2023-07-30T11:37:41.142Z,96.60
2023-07-30T11:39:45.063Z,96.70
2023-07-30T11:41:47.257Z,96.40
2023-07-30T11:43:49.083Z,95.50
2023-07-30T11:46:06.780Z,95.40
2023-07-30T11:48:10.413Z,96.10
2023-07-30T11:50:12.363Z,94.30
2023-07-30T11:52:14.213Z,93.70
2023-07-30T11:54:23.868Z,93.80
2023-07-30T11:56:32.733Z,94.10
2023-07-30T11:58:34.531Z,92.80
2023-07-30T12:00:37.332Z,92.50
2023-07-30T12:02:40.054Z,92.20
2023-07-30T12:04:45.583Z,93.00
2023-07-30T12:06:47.542Z,93.00
2023-07-30T12:08:49.839Z,92.30
2023-07-30T12:10:53.583Z,92.70
2023-07-30T12:12:55.428Z,92.60
2023-07-30T12:14:57.293Z,92.90
2023-07-30T12:16:59.416Z,93.20
2023-07-30T12:19:01.200Z,93.40
2023-07-30T12:21:03.010Z,93.60
2023-07-30T12:23:04.805Z,93.00
2023-07-30T12:25:07.210Z,94.00
2023-07-30T12:27:09.056Z,93.80
2023-07-30T12:29:10.901Z,93.90
2023-07-30T12:31:12.759Z,93.20
2023-07-30T12:33:14.678Z,92.90
2023-07-30T12:35:16.499Z,93.50
2023-07-30T12:37:18.510Z,93.70
2023-07-30T12:39:20.346Z,93.70
2023-07-30T12:41:28.132Z,93.90
2023-07-30T12:43:30.190Z,94.00
2023-07-30T12:45:32.929Z,93.40
2023-07-30T12:47:36.647Z,93.70
2023-07-30T12:49:38.510Z,93.60
2023-07-30T12:51:40.636Z,93.50
2023-07-30T12:53:42.713Z,94.10
2023-07-30T12:55:44.536Z,92.40
2023-07-30T12:57:46.467Z,92.80
2023-07-30T12:59:48.235Z,93.00
2023-07-30T13:01:50.321Z,93.00
2023-07-30T13:03:53.077Z,93.30
2023-07-30T13:05:55.077Z,93.70
2023-07-30T13:07:56.882Z,92.90
2023-07-30T13:10:08.830Z,92.40
2023-07-30T13:12:10.767Z,92.70
2023-07-30T13:14:12.693Z,92.10
2023-07-30T13:16:14.534Z,92.70
2023-07-30T13:18:16.414Z,92.30
2023-07-30T13:20:20.150Z,91.70
2023-07-30T13:22:22.373Z,91.40
2023-07-30T13:24:24.208Z,90.80
2023-07-30T13:26:26.014Z,91.30
2023-07-30T13:28:27.877Z,92.00
2023-07-30T13:30:29.979Z,92.90
2023-07-30T13:32:31.770Z,92.20
2023-07-30T13:34:33.805Z,91.50
2023-07-30T13:36:35.607Z,90.50
2023-07-30T13:38:37.742Z,90.60
2023-07-30T13:40:39.583Z,89.10
2023-07-30T13:42:42.062Z,90.00
2023-07-30T13:44:43.978Z,88.10
2023-07-30T13:46:46.138Z,87.70
2023-07-30T13:48:48.196Z,87.10
2023-07-30T13:50:49.953Z,86.40
2023-07-30T13:52:51.976Z,86.70
2023-07-30T13:54:53.905Z,88.10
2023-07-30T13:56:55.810Z,87.80
2023-07-30T13:58:57.837Z,89.00
2023-07-30T14:00:59.837Z,88.90
2023-07-30T14:03:01.758Z,87.30
2023-07-30T14:05:04.110Z,88.10
2023-07-30T14:07:05.935Z,85.80
2023-07-30T14:09:07.783Z,82.50
2023-07-30T14:11:09.840Z,82.90
2023-07-30T14:13:11.690Z,84.70
2023-07-30T14:15:13.533Z,85.10
2023-07-30T14:17:16.984Z,81.50
2023-07-30T14:19:18.966Z,76.40
2023-07-30T14:21:20.777Z,72.80
2023-07-30T14:23:22.652Z,70.60
2023-07-30T14:25:24.465Z,74.20
2023-07-30T14:27:26.480Z,74.60
2023-07-30T14:29:28.341Z,72.90
2023-07-30T14:31:30.145Z,70.50
2023-07-30T14:33:32.115Z,71.70
2023-07-30T14:35:34.056Z,69.10
2023-07-30T14:37:36.023Z,66.20
2023-07-30T14:39:37.940Z,66.60
2023-07-30T14:41:40.240Z,69.50
2023-07-30T14:43:42.453Z,66.60
2023-07-30T14:45:44.279Z,74.40
2023-07-30T14:47:47.971Z,74.30
2023-07-30T14:49:52.713Z,71.60
2023-07-30T14:51:55.639Z,70.10
2023-07-30T14:53:57.724Z,68.00
2023-07-30T14:56:01.374Z,67.20
2023-07-30T14:58:04.578Z,65.50
2023-07-30T15:00:08.043Z,66.00
2023-07-30T15:02:10.120Z,66.00
2023-07-30T15:04:11.895Z,66.20
2023-07-30T15:06:13.746Z,65.30
2023-07-30T15:08:15.584Z,67.70
2023-07-30T15:10:18.372Z,67.30
2023-07-30T15:12:20.661Z,67.90
2023-07-30T15:14:22.464Z,66.20
2023-07-30T15:16:24.283Z,65.90
2023-07-30T15:18:26.149Z,66.60
2023-07-30T15:20:29.172Z,66.30
2023-07-30T15:22:30.968Z,66.70
2023-07-30T15:24:32.940Z,70.10
2023-07-30T15:26:34.758Z,69.30
2023-07-30T15:28:36.821Z,65.60
2023-07-30T15:30:39.697Z,66.00
2023-07-30T15:32:42.566Z,69.10
2023-07-30T15:34:44.398Z,66.90
2023-07-30T15:36:46.235Z,65.70
2023-07-30T15:38:52.665Z,62.70
2023-07-30T15:40:54.532Z,64.80
2023-07-30T15:42:56.396Z,65.90
2023-07-30T15:44:58.177Z,71.60
2023-07-30T15:47:00.367Z,73.70
2023-07-30T15:49:02.220Z,74.90
2023-07-30T15:51:04.143Z,74.20
2023-07-30T15:53:06.154Z,77.70
2023-07-30T15:55:08.118Z,81.60
2023-07-30T15:57:13.002Z,81.60
2023-07-30T15:59:14.943Z,81.80
2023-07-30T16:01:16.817Z,83.00
2023-07-30T16:03:18.724Z,84.10
2023-07-30T16:05:20.621Z,84.30
2023-07-30T16:07:22.478Z,85.50
2023-07-30T16:09:24.263Z,86.20
2023-07-30T16:11:27.573Z,86.70
2023-07-30T16:13:29.426Z,87.60
2023-07-30T16:15:31.262Z,89.60
2023-07-30T16:17:33.097Z,89.10
2023-07-30T16:19:34.963Z,88.10
2023-07-30T16:21:36.754Z,89.50
2023-07-30T16:23:38.785Z,88.80
2023-07-30T16:25:40.638Z,89.80
2023-07-30T16:27:42.439Z,89.50
2023-07-30T16:29:44.405Z,89.70
2023-07-30T16:31:46.277Z,89.60
2023-07-30T16:33:48.058Z,89.90
2023-07-30T16:35:50.157Z,90.40
2023-07-30T16:37:51.993Z,90.40
2023-07-30T16:39:54.716Z,90.40
2023-07-30T16:41:56.507Z,90.40
2023-07-30T16:43:58.326Z,90.30
2023-07-30T16:46:02.605Z,90.40
2023-07-30T16:48:05.084Z,90.60
2023-07-30T16:50:07.244Z,90.80
2023-07-30T16:52:09.077Z,91.30
2023-07-30T16:54:12.668Z,91.20
2023-07-30T16:56:15.691Z,91.50
2023-07-30T16:58:17.761Z,90.90
2023-07-30T17:00:19.822Z,90.00
2023-07-30T17:02:21.657Z,90.80
2023-07-30T17:04:23.555Z,90.70
2023-07-30T17:06:25.399Z,91.30
2023-07-30T17:08:27.550Z,99.50
2023-07-30T17:10:29.341Z,99.90
2023-07-30T17:12:31.141Z,99.90
2023-07-30T17:14:33.006Z,99.90
2023-07-30T17:16:34.938Z,99.90
2023-07-30T17:18:36.971Z,99.90
2023-07-30T17:20:38.792Z,99.90
2023-07-30T17:22:40.585Z,99.90
2023-07-30T17:24:42.365Z,99.90
2023-07-30T17:26:44.204Z,99.90
2023-07-30T17:28:46.078Z,99.90
2023-07-30T17:30:47.993Z,99.90
2023-07-30T17:32:50.080Z,99.90
2023-07-30T17:34:51.906Z,99.90
2023-07-30T17:36:53.686Z,99.90
2023-07-30T17:38:55.772Z,99.90
2023-07-30T17:40:57.676Z,99.90
2023-07-30T17:42:59.460Z,99.90
2023-07-30T17:45:01.411Z,99.90
2023-07-30T17:47:03.233Z,99.90
2023-07-30T17:49:06.095Z,99.90
2023-07-30T17:51:17.650Z,99.90
2023-07-30T17:53:19.494Z,99.90
2023-07-30T17:55:23.194Z,99.90
2023-07-30T17:57:25.780Z,99.90
2023-07-30T17:59:28.242Z,99.90
2023-07-30T18:01:30.280Z,99.90
2023-07-30T18:03:32.594Z,99.90
2023-07-30T18:05:46.287Z,99.90
2023-07-30T18:07:51.242Z,99.90
2023-07-30T18:09:54.577Z,99.90
2023-07-30T18:11:57.230Z,99.90
2023-07-30T18:13:59.014Z,99.90
2023-07-30T18:16:01.088Z,99.90
2023-07-30T18:18:05.272Z,99.90
2023-07-30T18:20:07.595Z,99.90
2023-07-30T18:22:09.489Z,99.90
2023-07-30T18:24:11.734Z,99.90
2023-07-30T18:26:14.358Z,99.90
2023-07-30T18:28:16.472Z,99.90
2023-07-30T18:30:18.435Z,99.90
2023-07-30T18:32:20.591Z,99.90
2023-07-30T18:34:22.487Z,99.90
2023-07-30T18:36:24.675Z,99.90
2023-07-30T18:38:28.965Z,99.90
2023-07-30T18:40:31.130Z,99.90
2023-07-30T18:42:33.319Z,99.90
2023-07-30T18:44:35.726Z,99.90
2023-07-30T18:46:37.753Z,99.90
2023-07-30T18:48:39.885Z,99.90
2023-07-30T18:50:41.810Z,99.90
2023-07-30T18:52:43.651Z,99.90
2023-07-30T18:54:45.640Z,99.90
2023-07-30T18:56:47.493Z,99.90
2023-07-30T18:58:52.070Z,99.90
2023-07-30T19:00:53.976Z,99.90
2023-07-30T19:02:55.963Z,99.90
2023-07-30T19:04:58.026Z,99.90
2023-07-30T19:06:59.959Z,99.90
2023-07-30T19:09:01.740Z,99.90
2023-07-30T19:11:03.882Z,99.90
2023-07-30T19:13:05.777Z,99.90
2023-07-30T19:15:08.389Z,99.90
2023-07-30T19:17:10.506Z,99.90
2023-07-30T19:19:12.837Z,99.90
2023-07-30T19:21:14.622Z,99.90
2023-07-30T19:23:16.489Z,99.90
2023-07-30T19:25:18.870Z,99.90
2023-07-30T19:27:20.659Z,99.90
2023-07-30T19:29:22.513Z,99.90
2023-07-30T19:31:24.365Z,99.90
2023-07-30T19:33:26.260Z,99.90
2023-07-30T19:35:37.561Z,99.90
2023-07-30T19:37:47.204Z,99.90
2023-07-30T19:39:49.207Z,99.90
2023-07-30T19:41:52.854Z,99.90
2023-07-30T19:43:54.692Z,99.90
2023-07-30T19:45:56.532Z,99.90
2023-07-30T19:47:58.860Z,99.90
2023-07-30T19:50:04.514Z,99.90
2023-07-30T19:52:11.096Z,99.90
2023-07-30T19:54:13.678Z,99.90
2023-07-30T19:56:15.481Z,99.90
2023-07-30T19:58:25.314Z,99.90
2023-07-30T20:00:27.214Z,99.90
2023-07-30T20:02:29.034Z,99.90
2023-07-30T20:04:30.856Z,99.90
2023-07-30T20:06:32.752Z,99.90
2023-07-30T20:08:35.009Z,99.90
2023-07-30T20:10:36.789Z,99.90
2023-07-30T20:12:38.838Z,99.90
2023-07-30T20:14:40.614Z,99.90
2023-07-30T20:16:42.730Z,99.90
2023-07-30T20:18:44.796Z,99.90
2023-07-30T20:20:46.581Z,99.90
2023-07-30T20:22:50.375Z,99.90
2023-07-30T20:24:52.248Z,99.90
2023-07-30T20:26:54.054Z,99.90
2023-07-30T20:28:59.899Z,99.90
2023-07-30T20:31:01.712Z,99.90
2023-07-30T20:33:03.916Z,99.90
2023-07-30T20:35:06.566Z,99.90
2023-07-30T20:37:08.424Z,99.90
2023-07-30T20:39:10.212Z,99.90
2023-07-30T20:41:12.168Z,99.90
2023-07-30T20:43:14.007Z,99.90
2023-07-30T20:45:15.889Z,99.90
2023-07-30T20:47:17.698Z,99.90
2023-07-30T20:49:19.509Z,99.90
2023-07-30T20:51:21.606Z,99.90
2023-07-30T20:53:23.547Z,99.90
2023-07-30T20:55:26.304Z,99.90
2023-07-30T20:57:28.169Z,99.90
2023-07-30T20:59:30.182Z,99.90
2023-07-30T21:01:32.031Z,99.90
2023-07-30T21:03:33.976Z,99.90
2023-07-30T21:05:35.895Z,99.90
2023-07-30T21:07:38.183Z,99.90
2023-07-30T21:09:39.976Z,99.90
2023-07-30T21:11:41.930Z,99.90
2023-07-30T21:13:43.771Z,99.90
2023-07-30T21:15:51.695Z,99.90
2023-07-30T21:17:53.613Z,99.90
2023-07-30T21:19:55.455Z,99.90
2023-07-30T21:21:57.252Z,99.90
2023-07-30T21:23:59.019Z,99.90
2023-07-30T21:26:02.105Z,99.90
2023-07-30T21:28:03.972Z,99.90
2023-07-30T21:30:08.017Z,99.90
2023-07-30T21:32:10.077Z,99.90
2023-07-30T21:34:12.096Z,99.90
2023-07-30T21:36:13.974Z,99.90
2023-07-30T21:38:15.784Z,99.90
2023-07-30T21:40:17.615Z,99.90
2023-07-30T21:42:19.376Z,99.90
2023-07-30T21:44:21.223Z,99.90
2023-07-30T21:46:23.007Z,99.90
2023-07-30T21:48:24.809Z,99.90
2023-07-30T21:50:26.643Z,99.90
2023-07-30T21:52:29.088Z,99.90
2023-07-30T21:54:30.877Z,99.90
2023-07-30T21:56:32.691Z,99.90
2023-07-30T21:58:34.536Z,99.90
2023-07-30T22:00:36.325Z,99.90
2023-07-30T22:02:38.384Z,99.90
2023-07-30T22:04:40.247Z,99.90
2023-07-30T22:06:42.264Z,99.90
2023-07-30T22:08:44.234Z,99.90
2023-07-30T22:10:46.824Z,99.90
2023-07-30T22:12:48.764Z,99.90
2023-07-30T22:14:50.927Z,99.90
2023-07-30T22:16:52.820Z,99.90
2023-07-30T22:18:54.663Z,99.90
2023-07-30T22:20:56.523Z,99.90
2023-07-30T22:22:58.448Z,99.90
2023-07-30T22:25:00.281Z,99.90
2023-07-30T22:27:02.111Z,99.90
2023-07-30T22:29:03.857Z,99.90
2023-07-30T22:31:05.727Z,99.90
2023-07-30T22:33:07.598Z,99.90
2023-07-30T22:35:09.512Z,99.90
2023-07-30T22:37:11.316Z,99.90
2023-07-30T22:39:13.217Z,99.90
2023-07-30T22:41:15.049Z,99.90
2023-07-30T22:43:16.951Z,99.90
2023-07-30T22:45:18.809Z,99.90
2023-07-30T22:47:20.635Z,99.90
2023-07-30T22:49:22.465Z,99.90
2023-07-30T22:51:24.274Z,99.90
2023-07-30T22:53:26.176Z,99.90
2023-07-30T22:55:27.956Z,99.90
2023-07-30T22:57:29.763Z,99.90
2023-07-30T22:59:31.772Z,99.90
2023-07-30T23:01:33.593Z,99.90
2023-07-30T23:03:35.493Z,99.90
2023-07-30T23:05:38.482Z,99.90
2023-07-30T23:07:41.506Z,99.90
2023-07-30T23:09:46.029Z,99.90
2023-07-30T23:11:47.864Z,99.90
2023-07-30T23:13:49.632Z,99.90
2023-07-30T23:15:51.501Z,99.90
2023-07-30T23:17:53.383Z,99.90
2023-07-30T23:19:55.227Z,99.90
2023-07-30T23:21:57.094Z,99.90
2023-07-30T23:23:58.883Z,99.90
2023-07-30T23:26:00.645Z,99.90
2023-07-30T23:28:02.499Z,99.90
2023-07-30T23:30:07.051Z,99.90
2023-07-30T23:32:08.746Z,99.90
2023-07-30T23:34:10.599Z,99.90
2023-07-30T23:36:12.469Z,99.90
2023-07-30T23:38:14.367Z,99.90
2023-07-30T23:40:16.169Z,99.90
2023-07-30T23:42:17.936Z,99.90
2023-07-30T23:44:19.710Z,99.90
2023-07-30T23:46:21.609Z,99.90
2023-07-30T23:48:25.231Z,99.90
2023-07-30T23:50:27.108Z,99.90
2023-07-30T23:52:28.922Z,99.90
2023-07-30T23:54:33.129Z,99.90
2023-07-30T23:56:34.919Z,99.90
2023-07-30T23:58:36.765Z,99.90
